Time;durP1;ratioP1;P1;durP2;ratioP2;P2;SDS_P1;SDS_P2;PMS_P1;PMS_P2;Temp;Humidity;BMP_temperature;BMP_pressure;BME280_temperature;BME280_humidity;BME280_pressure;Samples;Min_cycle;Max_cycle;Signal;HPM_P1;HPM_P2
2021/08/31 00:02:33;;;;;;;3.87;1.10;;;;;;;;;;10540917;28;20035;-83
2021/08/31 00:07:34;;;;;;;4.33;1.17;;;;;;;;;;10541432;28;20102;-82
2021/08/31 00:12:34;;;;;;;2.53;0.93;;;;;;;;;;10539791;28;20536;-83
2021/08/31 00:17:35;;;;;;;2.42;1.23;;;;;;;;;;10540198;28;20028;-84
2021/08/31 00:22:36;;;;;;;2.22;0.77;;;;;;;;;;10540659;28;20031;-84
2021/08/31 00:27:37;;;;;;;2.13;0.75;;;;;;;;;;10539984;28;20031;-83
2021/08/31 00:32:37;;;;;;;3.80;0.98;;;;;;;;;;10539596;28;20454;-84
2021/08/31 00:37:37;;;;;;;1.27;0.90;;;;;;;;;;10538674;28;20114;-84
2021/08/31 00:42:38;;;;;;;3.77;0.80;;;;;;;;;;10539712;28;20036;-84
2021/08/31 00:47:38;;;;;;;1.87;0.80;;;;;;;;;;10539461;28;20441;-82
2021/08/31 00:52:39;;;;;;;1.63;0.83;;;;;;;;;;10539708;28;20027;-82
2021/08/31 00:57:41;;;;;;;2.95;1.00;;;;;;;;;;10539439;28;20027;-82
2021/08/31 01:02:43;;;;;;;3.60;0.80;;;;;;;;;;10538700;28;20036;-83
2021/08/31 01:07:43;;;;;;;1.67;0.93;;;;;;;;;;10539067;28;20028;-82
2021/08/31 01:12:44;;;;;;;2.17;0.70;;;;;;;;;;10538045;28;20032;-83
2021/08/31 01:17:44;;;;;;;1.67;0.70;;;;;;;;;;10538657;28;20031;-82
2021/08/31 01:22:46;;;;;;;1.77;0.80;;;;;;;;;;10539136;28;20027;-83
2021/08/31 01:27:46;;;;;;;2.30;0.80;;;;;;;;;;10538605;28;20433;-83
2021/08/31 01:32:47;;;;;;;4.17;1.03;;;;;;;;;;10538423;28;20450;-83
2021/08/31 01:37:47;;;;;;;1.83;1.13;;;;;;;;;;10538424;28;20024;-83
2021/08/31 01:42:47;;;;;;;0.70;0.70;;;;;;;;;;10537649;28;20055;-83
2021/08/31 01:47:48;;;;;;;0.80;0.70;;;;;;;;;;10538139;28;20799;-82
2021/08/31 01:52:48;;;;;;;2.27;0.80;;;;;;;;;;10538439;28;20032;-83
2021/08/31 01:57:48;;;;;;;1.10;0.67;;;;;;;;;;10538621;28;20058;-82
2021/08/31 02:02:49;;;;;;;1.13;0.73;;;;;;;;;;10536944;28;20461;-82
2021/08/31 02:07:49;;;;;;;0.80;0.80;;;;;;;;;;10537807;28;20051;-82
2021/08/31 02:12:50;;;;;;;1.53;0.70;;;;;;;;;;10536840;28;20036;-82
2021/08/31 02:17:50;;;;;;;2.42;0.82;;;;;;;;;;10543071;28;20078;-82
2021/08/31 02:22:51;;;;;;;1.50;0.77;;;;;;;;;;10545142;28;20036;-82
2021/08/31 02:27:51;;;;;;;2.47;0.80;;;;;;;;;;10544660;28;20055;-83
2021/08/31 02:32:52;;;;;;;0.77;0.68;;;;;;;;;;10544786;28;20036;-82
2021/08/31 02:37:52;;;;;;;0.93;0.80;;;;;;;;;;10544267;28;20424;-82
2021/08/31 02:42:52;;;;;;;0.93;0.73;;;;;;;;;;10544097;28;20048;-83
2021/08/31 02:47:53;;;;;;;0.70;0.60;;;;;;;;;;10544636;28;20788;-82
2021/08/31 02:52:53;;;;;;;0.88;0.70;;;;;;;;;;10544310;28;20075;-82
2021/08/31 02:57:55;;;;;;;1.20;0.93;;;;;;;;;;10543551;28;20377;-82
2021/08/31 03:02:56;;;;;;;4.18;0.80;;;;;;;;;;10543084;28;20497;-82
2021/08/31 03:07:56;;;;;;;0.55;0.55;;;;;;;;;;10543862;28;20052;-82
2021/08/31 03:12:57;;;;;;;1.90;0.80;;;;;;;;;;10543195;28;20024;-82
2021/08/31 03:17:57;;;;;;;0.73;0.63;;;;;;;;;;10542639;28;20047;-82
2021/08/31 03:22:57;;;;;;;0.73;0.73;;;;;;;;;;10542331;28;20020;-82
2021/08/31 03:27:58;;;;;;;0.93;0.67;;;;;;;;;;10542231;28;20055;-82
2021/08/31 03:32:58;;;;;;;0.70;0.70;;;;;;;;;;10542442;28;20032;-81
2021/08/31 03:37:58;;;;;;;0.87;0.60;;;;;;;;;;10542382;28;20493;-82
2021/08/31 03:42:59;;;;;;;0.87;0.60;;;;;;;;;;10542700;28;20076;-82
2021/08/31 03:47:59;;;;;;;1.47;0.70;;;;;;;;;;10541999;28;20024;-82
2021/08/31 03:53:00;;;;;;;1.07;0.70;;;;;;;;;;10540914;28;20031;-82
2021/08/31 03:58:00;;;;;;;2.67;0.63;;;;;;;;;;10541280;28;21029;-82
2021/08/31 04:03:01;;;;;;;2.92;0.60;;;;;;;;;;10540595;28;20039;-81
2021/08/31 04:08:02;;;;;;;1.88;0.77;;;;;;;;;;10541187;28;20024;-81
2021/08/31 04:13:06;;;;;;;0.95;0.50;;;;;;;;;;10541015;28;20028;-81
2021/08/31 04:18:06;;;;;;;0.63;0.60;;;;;;;;;;10541260;28;20056;-82
2021/08/31 04:23:07;;;;;;;1.27;0.70;;;;;;;;;;10538748;28;20062;-81
2021/08/31 04:28:07;;;;;;;0.60;0.60;;;;;;;;;;10539377;28;20516;-82
2021/08/31 04:33:07;;;;;;;0.73;0.60;;;;;;;;;;10540507;28;20103;-82
2021/08/31 04:38:08;;;;;;;1.70;0.88;;;;;;;;;;10539616;28;20464;-82
2021/08/31 04:43:08;;;;;;;3.47;0.90;;;;;;;;;;10539860;28;20074;-82
2021/08/31 04:48:09;;;;;;;0.98;0.93;;;;;;;;;;10539936;28;20473;-81
2021/08/31 04:53:09;;;;;;;1.13;1.07;;;;;;;;;;10521761;28;20024;-82
2021/08/31 04:58:10;;;;;;;1.93;1.10;;;;;;;;;;10539654;28;20056;-82
2021/08/31 05:03:10;;;;;;;1.43;1.00;;;;;;;;;;10540042;28;20499;-82
2021/08/31 05:08:10;;;;;;;1.10;1.00;;;;;;;;;;10538843;28;20028;-81
2021/08/31 05:13:11;;;;;;;3.93;0.90;;;;;;;;;;10538016;28;20024;-84
2021/08/31 05:18:11;;;;;;;2.80;0.70;;;;;;;;;;10529706;28;20433;-81
2021/08/31 05:23:12;;;;;;;1.53;0.87;;;;;;;;;;10533641;28;20051;-82
2021/08/31 05:28:12;;;;;;;1.20;0.53;;;;;;;;;;10538751;28;20776;-82
2021/08/31 05:33:12;;;;;;;0.80;0.80;;;;;;;;;;10536119;28;20425;-82
2021/08/31 05:38:13;;;;;;;0.63;0.60;;;;;;;;;;10537258;28;20119;-81
2021/08/31 05:43:13;;;;;;;0.60;0.60;;;;;;;;;;10537306;28;20057;-85
2021/08/31 05:48:13;;;;;;;0.52;0.52;;;;;;;;;;10537956;28;20028;-84
2021/08/31 05:53:14;;;;;;;0.50;0.50;;;;;;;;;;10541490;28;20036;-81
2021/08/31 05:58:15;;;;;;;1.47;0.53;;;;;;;;;;10545943;28;20081;-81
2021/08/31 06:03:15;;;;;;;0.60;0.60;;;;;;;;;;10545392;28;20024;-82
2021/08/31 06:08:15;;;;;;;0.60;0.60;;;;;;;;;;10539521;28;20035;-82
2021/08/31 06:13:16;;;;;;;0.70;0.70;;;;;;;;;;10532901;28;20494;-81
2021/08/31 06:18:16;;;;;;;0.70;0.60;;;;;;;;;;10543824;28;20020;-82
2021/08/31 06:23:17;;;;;;;1.73;0.80;;;;;;;;;;10544332;28;20465;-82
2021/08/31 06:28:17;;;;;;;2.00;0.80;;;;;;;;;;10527012;28;20058;-81
2021/08/31 06:33:18;;;;;;;1.00;0.73;;;;;;;;;;10544789;28;20461;-82
2021/08/31 06:38:18;;;;;;;0.77;0.53;;;;;;;;;;10544573;28;20157;-80
2021/08/31 06:43:19;;;;;;;3.20;0.60;;;;;;;;;;10543528;28;20111;-81
2021/08/31 06:48:19;;;;;;;2.28;0.68;;;;;;;;;;10543774;28;20028;-81
2021/08/31 06:53:19;;;;;;;3.47;0.70;;;;;;;;;;10544163;28;20036;-82
2021/08/31 06:58:20;;;;;;;1.20;0.63;;;;;;;;;;10543806;28;20050;-82
2021/08/31 07:03:20;;;;;;;0.53;0.53;;;;;;;;;;10543222;28;20031;-83
2021/08/31 07:08:21;;;;;;;1.17;0.73;;;;;;;;;;10543466;28;20837;-82
2021/08/31 07:13:21;;;;;;;0.67;0.40;;;;;;;;;;10543110;28;20102;-81
2021/08/31 07:18:21;;;;;;;1.50;0.80;;;;;;;;;;10543410;28;20525;-82
2021/08/31 07:23:22;;;;;;;0.70;0.70;;;;;;;;;;10541974;28;20024;-81
2021/08/31 07:28:22;;;;;;;2.43;0.70;;;;;;;;;;10525163;28;20031;-82
2021/08/31 07:33:23;;;;;;;1.35;0.60;;;;;;;;;;10541853;28;20032;-82
2021/08/31 07:38:23;;;;;;;3.08;0.80;;;;;;;;;;10541618;28;20035;-86
2021/08/31 07:43:24;;;;;;;2.30;0.80;;;;;;;;;;10549157;22;20052;-87
2021/08/31 07:48:25;;;;;;;11.35;0.95;;;;;;;;;;10549468;28;20362;-86
2021/08/31 07:53:25;;;;;;;7.43;0.90;;;;;;;;;;10544866;28;20020;-86
2021/08/31 07:58:26;;;;;;;2.97;0.70;;;;;;;;;;10551499;28;20056;-86
2021/08/31 08:03:26;;;;;;;1.15;0.85;;;;;;;;;;10532882;28;20016;-86
2021/08/31 08:08:26;;;;;;;1.37;0.80;;;;;;;;;;10541618;28;20121;-85
2021/08/31 08:13:27;;;;;;;4.10;1.00;;;;;;;;;;10536350;28;20028;-85
2021/08/31 08:18:27;;;;;;;3.40;0.83;;;;;;;;;;10511974;28;20469;-87
2021/08/31 08:23:28;;;;;;;1.57;0.80;;;;;;;;;;10534530;28;20453;-85
2021/08/31 08:28:28;;;;;;;3.95;0.90;;;;;;;;;;10540607;28;20061;-86
2021/08/31 08:33:32;;;;;;;1.23;1.00;;;;;;;;;;10540211;28;20377;-86
2021/08/31 08:38:33;;;;;;;2.00;1.15;;;;;;;;;;10539081;28;20107;-87
2021/08/31 08:43:34;;;;;;;2.72;1.00;;;;;;;;;;10540323;28;20151;-86
2021/08/31 08:48:35;;;;;;;3.00;1.02;;;;;;;;;;10539122;28;20077;-85
2021/08/31 08:53:36;;;;;;;1.75;0.93;;;;;;;;;;10539113;28;20027;-86
2021/08/31 08:58:36;;;;;;;0.93;0.90;;;;;;;;;;10528335;28;20031;-86
2021/08/31 09:03:38;;;;;;;1.50;0.97;;;;;;;;;;10529680;28;20424;-85
2021/08/31 09:08:59;;;;;;;1.00;0.90;;;;;;;;;;10537344;28;20085;-85
2021/08/31 09:14:22;;;;;;;2.95;1.00;;;;;;;;;;10525743;28;20077;-85
2021/08/31 09:19:41;;;;;;;3.50;1.17;;;;;;;;;;10526463;28;20052;-85
2021/08/31 09:24:54;;;;;;;;;;;;;;;;;;10540542;28;20470;-86
2021/08/31 09:30:12;;;;;;;5.63;1.25;;;;;;;;;;10546638;28;19912;-85
2021/08/31 09:35:16;;;;;;;8.02;1.20;;;;;;;;;;10546872;28;20016;-86
2021/08/31 09:40:17;;;;;;;0.90;0.90;;;;;;;;;;10527885;28;20049;-88
2021/08/31 09:45:22;;;;;;;3.30;1.20;;;;;;;;;;10463198;28;20025;-85
2021/08/31 09:50:39;;;;;;;7.00;1.23;;;;;;;;;;10463935;28;20021;-86
2021/08/31 09:55:48;;;;;;;3.50;1.33;;;;;;;;;;10463633;28;20043;-86
2021/08/31 10:00:50;;;;;;;2.33;1.35;;;;;;;;;;10465574;28;20108;-86
2021/08/31 10:05:52;;;;;;;2.25;1.23;;;;;;;;;;10465708;28;20025;-85
2021/08/31 10:10:53;;;;;;;1.60;1.10;;;;;;;;;;10476793;28;20579;-86
2021/08/31 10:15:56;;;;;;;1.65;1.00;;;;;;;;;;10486353;28;20052;-85
2021/08/31 10:21:06;;;;;;;2.88;1.25;;;;;;;;;;10462220;28;20036;-83
2021/08/31 10:26:32;;;;;;;1.38;1.00;;;;;;;;;;10462093;28;20416;-83
2021/08/31 10:31:33;;;;;;;3.45;0.90;;;;;;;;;;10466230;28;20385;-84
2021/08/31 10:36:36;;;;;;;0.97;0.70;;;;;;;;;;10470995;28;20033;-83
2021/08/31 10:41:43;;;;;;;1.92;0.88;;;;;;;;;;10461466;28;20052;-83
2021/08/31 10:47:04;;;;;;;4.75;1.02;;;;;;;;;;10475817;28;20025;-84
2021/08/31 10:52:08;;;;;;;1.50;1.20;;;;;;;;;;10461586;28;20120;-83
2021/08/31 10:57:36;;;;;;;1.20;0.93;;;;;;;;;;10460902;28;20029;-84
2021/08/31 11:02:46;;;;;;;2.05;1.00;;;;;;;;;;10461324;28;20366;-86
2021/08/31 11:07:51;;;;;;;1.52;1.00;;;;;;;;;;10460721;28;20075;-84
2021/08/31 11:12:52;;;;;;;7.47;1.10;;;;;;;;;;10474556;28;20036;-86
2021/08/31 11:17:56;;;;;;;1.40;0.98;;;;;;;;;;10466609;28;20108;-84
2021/08/31 11:23:02;;;;;;;3.10;0.82;;;;;;;;;;10481774;28;20036;-86
2021/08/31 11:28:10;;;;;;;1.63;1.00;;;;;;;;;;10487530;28;20087;-87
2021/08/31 11:33:37;;;;;;;1.33;0.80;;;;;;;;;;10468346;28;20040;-88
2021/08/31 11:38:39;;;;;;;1.88;0.90;;;;;;;;;;10474101;28;20116;-88
2021/08/31 11:43:40;;;;;;;2.33;0.90;;;;;;;;;;10473809;28;20395;-89
2021/08/31 11:48:40;;;;;;;1.05;0.95;;;;;;;;;;10470573;28;20029;-89
2021/08/31 11:53:40;;;;;;;1.33;0.90;;;;;;;;;;10473992;28;20040;-89
2021/08/31 11:58:43;;;;;;;2.97;1.47;;;;;;;;;;10471898;28;20537;-90
2021/08/31 12:03:43;;;;;;;1.45;1.10;;;;;;;;;;10479337;28;20035;-89
2021/08/31 12:08:46;;;;;;;2.23;1.20;;;;;;;;;;10465015;28;20044;-90
2021/08/31 12:13:48;;;;;;;1.00;0.90;;;;;;;;;;10483439;28;20041;-88
2021/08/31 12:18:48;;;;;;;1.50;0.90;;;;;;;;;;10456562;28;20084;-89
2021/08/31 12:23:51;;;;;;;1.53;1.10;;;;;;;;;;10467641;28;20052;-88
2021/08/31 12:28:59;;;;;;;2.00;0.90;;;;;;;;;;10461259;28;20021;-91
2021/08/31 12:34:01;;;;;;;1.40;0.90;;;;;;;;;;10457326;28;20032;-85
2021/08/31 12:39:08;;;;;;;1.42;0.85;;;;;;;;;;10466234;28;20066;-83
2021/08/31 12:44:19;;;;;;;4.53;1.07;;;;;;;;;;10461137;28;20391;-84
2021/08/31 12:49:20;;;;;;;3.38;0.70;;;;;;;;;;10456753;28;20036;-84
2021/08/31 12:54:31;;;;;;;1.88;0.90;;;;;;;;;;10469500;28;20414;-83
2021/08/31 12:59:40;;;;;;;4.93;0.80;;;;;;;;;;10455418;28;20075;-84
2021/08/31 13:04:42;;;;;;;6.68;1.10;;;;;;;;;;10456044;28;20020;-83
2021/08/31 13:09:46;;;;;;;2.25;1.05;;;;;;;;;;10462248;28;20016;-83
2021/08/31 13:14:46;;;;;;;5.63;0.93;;;;;;;;;;10477781;28;20068;-83
2021/08/31 13:19:46;;;;;;;5.40;1.30;;;;;;;;;;10456305;28;20461;-83
2021/08/31 13:24:47;;;;;;;1.87;1.10;;;;;;;;;;10455898;28;20028;-83
2021/08/31 13:29:47;;;;;;;2.08;1.38;;;;;;;;;;10455985;28;20025;-83
2021/08/31 13:34:48;;;;;;;2.50;1.20;;;;;;;;;;10455230;28;20123;-82
2021/08/31 13:39:48;;;;;;;1.47;1.03;;;;;;;;;;10455363;28;20871;-83
2021/08/31 13:44:50;;;;;;;1.90;1.10;;;;;;;;;;10468619;28;20406;-82
2021/08/31 13:49:51;;;;;;;1.20;1.00;;;;;;;;;;10455339;28;20021;-82
2021/08/31 13:54:51;;;;;;;4.70;1.23;;;;;;;;;;10455538;28;20387;-81
2021/08/31 13:59:51;;;;;;;2.30;1.13;;;;;;;;;;10455148;28;20060;-83
2021/08/31 14:04:52;;;;;;;1.17;0.90;;;;;;;;;;10454616;28;20075;-82
2021/08/31 14:09:52;;;;;;;1.47;1.00;;;;;;;;;;10462558;28;20052;-82
2021/08/31 14:14:52;;;;;;;1.33;1.23;;;;;;;;;;10469308;28;20033;-82
2021/08/31 14:19:53;;;;;;;2.37;1.10;;;;;;;;;;10462428;28;20446;-82
2021/08/31 14:24:54;;;;;;;2.92;1.00;;;;;;;;;;10462204;28;20032;-82
2021/08/31 14:29:54;;;;;;;1.50;1.10;;;;;;;;;;10466166;28;20028;-82
2021/08/31 14:34:55;;;;;;;1.43;0.93;;;;;;;;;;10471589;28;20028;-82
2021/08/31 14:39:55;;;;;;;1.20;1.10;;;;;;;;;;10475382;28;20085;-81
2021/08/31 14:44:56;;;;;;;1.25;1.08;;;;;;;;;;10463233;28;20430;-81
2021/08/31 14:49:56;;;;;;;2.03;1.23;;;;;;;;;;10473595;28;20029;-82
2021/08/31 14:54:56;;;;;;;1.10;1.00;;;;;;;;;;10460995;28;20123;-81
2021/08/31 14:59:57;;;;;;;5.68;1.23;;;;;;;;;;10469048;28;20374;-81
2021/08/31 15:04:57;;;;;;;8.23;1.70;;;;;;;;;;10460731;28;20429;-81
2021/08/31 15:09:58;;;;;;;6.77;1.20;;;;;;;;;;10481499;28;20103;-81
2021/08/31 15:14:58;;;;;;;4.30;1.70;;;;;;;;;;10478288;28;20036;-81
2021/08/31 15:19:58;;;;;;;3.30;1.70;;;;;;;;;;10479216;28;20048;-82
2021/08/31 15:24:59;;;;;;;3.20;1.30;;;;;;;;;;10459172;28;20485;-81
2021/08/31 15:29:59;;;;;;;3.23;1.50;;;;;;;;;;10464637;28;20516;-80
2021/08/31 15:34:59;;;;;;;3.63;1.30;;;;;;;;;;10468702;28;20621;-80
2021/08/31 15:40:00;;;;;;;3.77;1.57;;;;;;;;;;10459352;28;20044;-80
2021/08/31 15:45:03;;;;;;;4.97;1.63;;;;;;;;;;10458481;28;20441;-80
2021/08/31 15:50:04;;;;;;;2.40;1.23;;;;;;;;;;10458281;28;20068;-80
2021/08/31 15:55:06;;;;;;;6.65;1.25;;;;;;;;;;10457463;28;20043;-81
2021/08/31 16:00:06;;;;;;;2.80;1.48;;;;;;;;;;10458672;28;20478;-81
2021/08/31 16:05:08;;;;;;;5.38;1.60;;;;;;;;;;10458268;28;20033;-81
2021/08/31 16:10:09;;;;;;;5.72;1.30;;;;;;;;;;10467107;28;20029;-80
2021/08/31 16:15:10;;;;;;;3.58;1.88;;;;;;;;;;10462404;28;20037;-80
2021/08/31 16:20:11;;;;;;;4.13;1.35;;;;;;;;;;10457823;28;20063;-80
2021/08/31 16:25:11;;;;;;;4.88;1.50;;;;;;;;;;10457263;28;20032;-81
2021/08/31 16:30:12;;;;;;;2.93;1.40;;;;;;;;;;10456845;28;20447;-81
2021/08/31 16:35:13;;;;;;;1.65;1.27;;;;;;;;;;10456064;28;20033;-81
2021/08/31 16:40:14;;;;;;;3.10;1.40;;;;;;;;;;10456681;28;20037;-80
2021/08/31 16:45:15;;;;;;;3.58;1.48;;;;;;;;;;10456010;28;20040;-80
2021/08/31 16:50:15;;;;;;;2.00;1.23;;;;;;;;;;10456927;28;20058;-82
2021/08/31 16:55:15;;;;;;;4.93;1.40;;;;;;;;;;10456969;28;20028;-82
2021/08/31 17:00:17;;;;;;;2.40;1.15;;;;;;;;;;10469932;28;20567;-81
2021/08/31 17:05:18;;;;;;;3.40;1.50;;;;;;;;;;10455233;28;20104;-81
2021/08/31 17:10:18;;;;;;;2.77;1.40;;;;;;;;;;10467150;28;20364;-80
2021/08/31 17:15:19;;;;;;;2.58;1.27;;;;;;;;;;10458534;28;20112;-81
2021/08/31 17:20:19;;;;;;;2.57;1.23;;;;;;;;;;10470376;28;20116;-80
2021/08/31 17:25:19;;;;;;;6.57;1.37;;;;;;;;;;10456217;28;20057;-80
2021/08/31 17:30:20;;;;;;;3.33;1.60;;;;;;;;;;10455232;28;20083;-80
2021/08/31 17:35:20;;;;;;;3.33;1.50;;;;;;;;;;10455030;28;20057;-80
2021/08/31 17:40:21;;;;;;;2.58;1.45;;;;;;;;;;10455639;28;20049;-81
2021/08/31 17:45:21;;;;;;;1.92;1.20;;;;;;;;;;10456330;28;20028;-80
2021/08/31 17:50:22;;;;;;;2.10;1.40;;;;;;;;;;10472131;28;20040;-80
2021/08/31 17:55:24;;;;;;;3.30;1.50;;;;;;;;;;10470859;28;20090;-81
2021/08/31 18:00:25;;;;;;;4.97;1.40;;;;;;;;;;10462192;28;20029;-81
2021/08/31 18:05:25;;;;;;;4.82;1.20;;;;;;;;;;10486283;28;20094;-80
2021/08/31 18:10:25;;;;;;;4.73;1.50;;;;;;;;;;10485238;28;20470;-80
2021/08/31 18:15:26;;;;;;;4.40;1.40;;;;;;;;;;10495560;28;20033;-81
2021/08/31 18:20:26;;;;;;;4.77;1.90;;;;;;;;;;10474030;28;21018;-80
2021/08/31 18:25:27;;;;;;;2.73;1.30;;;;;;;;;;10476222;28;20595;-81
2021/08/31 18:30:27;;;;;;;5.43;1.53;;;;;;;;;;10471158;28;20033;-80
2021/08/31 18:35:27;;;;;;;2.22;1.27;;;;;;;;;;10466536;28;21009;-80
2021/08/31 18:40:28;;;;;;;4.07;1.23;;;;;;;;;;10467451;28;20406;-80
2021/08/31 18:45:28;;;;;;;5.83;1.37;;;;;;;;;;10473677;28;20032;-80
2021/08/31 18:50:29;;;;;;;3.30;1.50;;;;;;;;;;10468122;28;20024;-80
2021/08/31 18:55:30;;;;;;;5.82;1.80;;;;;;;;;;10470120;28;20092;-80
2021/08/31 19:00:30;;;;;;;4.03;1.40;;;;;;;;;;10473329;28;20033;-80
2021/08/31 19:05:31;;;;;;;3.33;1.42;;;;;;;;;;10485186;28;20459;-80
2021/08/31 19:10:31;;;;;;;2.20;1.48;;;;;;;;;;10493067;28;20037;-80
2021/08/31 19:15:32;;;;;;;2.90;1.40;;;;;;;;;;10468842;28;20032;-80
2021/08/31 19:20:32;;;;;;;4.50;1.73;;;;;;;;;;10473251;28;20121;-81
2021/08/31 19:25:33;;;;;;;2.90;1.25;;;;;;;;;;10483751;28;20414;-81
2021/08/31 19:30:33;;;;;;;2.83;1.48;;;;;;;;;;10508756;28;20452;-80
2021/08/31 19:35:34;;;;;;;3.58;1.80;;;;;;;;;;10515808;28;20020;-84
2021/08/31 19:40:35;;;;;;;4.30;1.45;;;;;;;;;;10511284;22;20044;-87
2021/08/31 19:45:35;;;;;;;1.40;1.20;;;;;;;;;;10501047;28;20032;-85
2021/08/31 19:50:35;;;;;;;2.23;1.20;;;;;;;;;;10500983;28;20032;-86
2021/08/31 19:55:36;;;;;;;4.10;1.45;;;;;;;;;;10497893;28;20041;-86
2021/08/31 20:00:36;;;;;;;2.93;1.47;;;;;;;;;;10500897;28;20449;-85
2021/08/31 20:05:37;;;;;;;4.18;1.50;;;;;;;;;;10502501;28;20024;-87
2021/08/31 20:10:37;;;;;;;3.73;1.37;;;;;;;;;;10499390;28;20063;-86
2021/08/31 20:15:37;;;;;;;1.73;1.30;;;;;;;;;;10483288;28;20450;-87
2021/08/31 20:20:38;;;;;;;4.10;1.60;;;;;;;;;;10458812;28;20025;-87
2021/08/31 20:25:39;;;;;;;11.50;1.50;;;;;;;;;;10457677;28;20029;-84
2021/08/31 20:30:39;;;;;;;4.28;1.60;;;;;;;;;;10485746;28;20029;-86
2021/08/31 20:35:40;;;;;;;3.60;1.40;;;;;;;;;;10465862;28;20028;-86
2021/08/31 20:40:40;;;;;;;7.27;1.73;;;;;;;;;;10458720;28;20041;-81
2021/08/31 20:45:41;;;;;;;3.17;1.80;;;;;;;;;;10460704;28;20023;-80
2021/08/31 20:50:42;;;;;;;5.22;1.85;;;;;;;;;;10464432;28;20040;-79
2021/08/31 20:55:42;;;;;;;4.20;2.03;;;;;;;;;;10458053;28;20029;-80
2021/08/31 21:00:42;;;;;;;4.13;1.80;;;;;;;;;;10467434;28;20052;-81
2021/08/31 21:05:43;;;;;;;2.53;1.53;;;;;;;;;;10492683;28;20054;-80
2021/08/31 21:10:43;;;;;;;3.72;1.88;;;;;;;;;;10495800;28;20448;-82
2021/08/31 21:15:44;;;;;;;8.17;1.80;;;;;;;;;;10492750;28;20098;-82
2021/08/31 21:20:44;;;;;;;5.60;1.55;;;;;;;;;;10499300;28;20470;-82
2021/08/31 21:25:45;;;;;;;4.90;1.43;;;;;;;;;;10504486;28;20090;-82
2021/08/31 21:30:45;;;;;;;4.73;1.50;;;;;;;;;;10505749;28;20029;-82
